Time;durP1;ratioP1;P1;durP2;ratioP2;P2;SDS_P1;SDS_P2;PMS_P1;PMS_P2;Temp;Humidity;BMP_temperature;BMP_pressure;BME280_temperature;BME280_humidity;BME280_pressure;Samples;Min_cycle;Max_cycle;Signal;HPM_P1;HPM_P2
2023/12/22 00:00:09;;;;;;;20.02;2.47;;;;;;;-146.27;87.14;33327.09;5070827;28;20407;-70
2023/12/22 00:02:35;;;;;;;16.38;2.15;;;;;;;-146.27;87.16;33360.81;5064393;28;20135;-70
2023/12/22 00:05:00;;;;;;;31.38;3.38;;;;;;;-146.27;86.70;33327.09;5063694;28;20021;-71
2023/12/22 00:07:26;;;;;;;25.40;2.45;;;;;;;-146.27;86.30;33311.22;5070394;28;20460;-70
2023/12/22 00:09:51;;;;;;;19.00;2.63;;;;;;;-146.27;86.01;33327.09;5071098;28;20464;-71
2023/12/22 00:12:17;;;;;;;26.45;3.42;;;;;;;-146.27;85.72;33333.03;5068308;28;20024;-71
2023/12/22 00:14:42;;;;;;;30.50;3.47;;;;;;;-146.27;85.25;33356.84;5071152;28;20025;-71
2023/12/22 00:17:07;;;;;;;41.38;4.90;;;;;;;-146.27;84.58;33323.13;5067853;28;20062;-71
2023/12/22 00:19:33;;;;;;;29.70;3.75;;;;;;;-146.27;83.06;33295.34;5058431;28;20021;-71
2023/12/22 00:21:58;;;;;;;20.27;2.40;;;;;;;-146.27;79.54;33255.66;5055450;28;20033;-70
2023/12/22 00:24:24;;;;;;;23.63;3.35;;;;;;;-146.27;77.32;33295.34;5055823;28;20426;-70
2023/12/22 00:26:49;;;;;;;17.58;3.20;;;;;;;-146.27;76.62;33235.81;5063872;28;20028;-71
2023/12/22 00:29:14;;;;;;;21.55;2.58;;;;;;;-146.27;74.76;33206.06;5061589;28;20032;-71
2023/12/22 00:31:40;;;;;;;14.95;2.42;;;;;;;-146.27;73.63;33279.47;5071522;28;20024;-71
2023/12/22 00:34:05;;;;;;;28.17;2.40;;;;;;;-146.27;72.61;33212.00;5066768;28;20027;-70
2023/12/22 00:36:31;;;;;;;18.92;2.10;;;;;;;-146.27;73.70;33144.56;5051805;28;20036;-70
2023/12/22 00:38:56;;;;;;;21.50;3.05;;;;;;;-146.27;73.86;33202.09;5058349;28;20027;-70
2023/12/22 00:41:21;;;;;;;20.60;2.90;;;;;;;-146.27;74.22;33253.69;5056076;28;20020;-70
2023/12/22 00:43:47;;;;;;;23.02;3.35;;;;;;;-146.27;73.68;33196.13;5055846;28;20024;-70
2023/12/22 00:46:13;;;;;;;17.95;2.65;;;;;;;-146.27;72.36;33204.06;5064055;28;20025;-70
2023/12/22 00:48:38;;;;;;;11.68;2.28;;;;;;;-146.27;71.04;33233.84;5060833;28;20027;-70
2023/12/22 00:51:06;;;;;;;24.90;2.60;;;;;;;-146.27;71.11;33148.53;5056033;28;20028;-71
2023/12/22 00:53:32;;;;;;;13.20;2.85;;;;;;;-146.27;69.63;33237.81;5067912;28;20063;-72
2023/12/22 00:55:57;;;;;;;20.15;2.15;;;;;;;-146.27;68.80;33210.03;5069854;28;20465;-70
2023/12/22 00:58:22;;;;;;;15.13;2.20;;;;;;;-146.27;68.55;33120.75;5066013;28;20032;-71
2023/12/22 01:00:48;;;;;;;16.25;2.42;;;;;;;-146.27;68.29;33176.31;5056863;28;20075;-71
2023/12/22 01:03:13;;;;;;;19.85;2.50;;;;;;;-146.27;68.10;33124.72;5065758;28;20028;-71
2023/12/22 01:05:38;;;;;;;19.42;2.10;;;;;;;-146.27;67.47;33146.53;5065656;28;20051;-72
2023/12/22 01:08:04;;;;;;;18.73;1.73;;;;;;;-146.27;66.59;33172.34;5069004;28;20051;-71
2023/12/22 01:10:29;;;;;;;16.50;2.28;;;;;;;-146.27;66.55;33144.56;5063792;28;20380;-71
2023/12/22 01:12:55;;;;;;;20.38;3.22;;;;;;;-146.27;67.29;33092.97;5065252;28;20055;-71
2023/12/22 01:15:20;;;;;;;14.35;1.90;;;;;;;-146.27;67.54;33184.25;5065166;28;20028;-71
2023/12/22 01:17:46;;;;;;;21.65;4.18;;;;;;;-146.27;68.04;33092.97;5063627;28;20024;-70
2023/12/22 01:20:11;;;;;;;18.52;2.67;;;;;;;-146.27;66.82;33152.50;5054059;28;20706;-71
2023/12/22 01:22:38;;;;;;;27.23;3.95;;;;;;;-146.27;66.71;33184.25;5066019;28;20028;-71
2023/12/22 01:25:04;;;;;;;12.50;2.25;;;;;;;-146.27;65.01;33180.28;5068943;28;20032;-70
2023/12/22 01:27:30;;;;;;;26.02;2.55;;;;;;;-146.27;64.01;33178.28;5063980;28;20032;-71
2023/12/22 01:29:56;;;;;;;19.25;2.65;;;;;;;-146.27;62.93;33132.66;5053465;28;20033;-70
2023/12/22 01:32:21;;;;;;;19.48;2.10;;;;;;;-146.27;63.44;33043.38;5051872;28;20029;-70
2023/12/22 01:34:46;;;;;;;17.25;2.65;;;;;;;-146.27;64.54;33085.03;5068384;28;20031;-71
2023/12/22 01:37:12;;;;;;;30.67;3.38;;;;;;;-146.27;64.62;33116.78;5067154;28;20020;-71
2023/12/22 01:39:37;;;;;;;21.70;2.85;;;;;;;-146.27;66.04;33089.00;5064279;28;20035;-72
2023/12/22 01:42:03;;;;;;;15.43;1.80;;;;;;;-146.27;66.88;33110.81;5058488;28;20024;-72
2023/12/22 01:44:29;;;;;;;17.65;3.28;;;;;;;-146.27;65.99;33116.78;5062028;28;20108;-70
2023/12/22 01:46:55;;;;;;;22.52;3.00;;;;;;;-146.27;64.71;33100.91;5055967;28;20032;-70
2023/12/22 01:49:22;;;;;;;19.48;2.05;;;;;;;-146.27;64.44;33136.63;5063378;28;20035;-70
2023/12/22 01:51:49;;;;;;;15.38;2.53;;;;;;;-146.27;64.59;33116.78;5053611;28;20412;-71
2023/12/22 01:54:15;;;;;;;16.13;2.45;;;;;;;-146.27;64.41;33019.56;5057919;28;20076;-72
2023/12/22 01:56:41;;;;;;;19.33;2.67;;;;;;;-146.27;65.42;33091.00;5063308;28;20024;-71
2023/12/22 01:59:08;;;;;;;22.25;3.60;;;;;;;-146.27;67.94;33144.56;5064027;28;20081;-71
2023/12/22 02:01:33;;;;;;;22.77;2.45;;;;;;;-146.27;68.91;33144.56;5052361;28;20464;-71
2023/12/22 02:03:59;;;;;;;29.50;3.20;;;;;;;-146.27;68.99;33116.78;5067367;28;20085;-70
2023/12/22 02:06:25;;;;;;;23.10;3.03;;;;;;;-146.27;69.99;33073.13;5061548;28;20089;-71
2023/12/22 02:08:50;;;;;;;23.48;3.50;;;;;;;-146.27;70.90;33077.09;5062048;28;20025;-71
2023/12/22 02:11:16;;;;;;;17.88;2.60;;;;;;;-146.27;71.59;33116.78;5062836;28;20035;-71
2023/12/22 02:13:43;;;;;;;15.02;2.63;;;;;;;-146.27;70.56;33045.34;5064673;28;20025;-71
2023/12/22 02:16:39;;;;;;;13.02;2.42;;;;;;;-146.27;70.74;33063.22;5056600;28;20519;-71
2023/12/22 02:19:26;;;;;;;12.77;1.98;;;;;;;-146.27;70.49;33102.88;5053472;28;20032;-70
2023/12/22 02:22:06;;;;;;;15.18;2.47;;;;;;;-146.27;69.11;33049.31;5058311;28;20099;-71
2023/12/22 02:24:32;;;;;;;22.15;2.63;;;;;;;-146.27;67.98;32960.03;5055010;28;20032;-71
2023/12/22 02:27:09;;;;;;;20.45;2.45;;;;;;;-146.27;68.59;33045.34;5057033;28;20110;-71
2023/12/22 02:29:45;;;;;;;24.05;4.65;;;;;;;-146.27;68.69;33041.38;5061995;28;20020;-69
2023/12/22 02:32:21;;;;;;;20.73;2.40;;;;;;;-146.27;69.05;33057.25;5072501;28;20436;-71
2023/12/22 02:34:50;;;;;;;16.40;2.63;;;;;;;-146.27;69.09;33039.41;5068414;28;20016;-70
2023/12/22 02:37:17;;;;;;;27.45;3.03;;;;;;;-146.27;68.88;33041.38;5070120;28;20079;-70
2023/12/22 02:39:44;;;;;;;15.65;2.03;;;;;;;-146.27;68.52;33001.72;5070219;28;20020;-71
2023/12/22 02:42:10;;;;;;;10.82;2.20;;;;;;;-146.27;68.30;33021.53;5072920;28;20032;-71
2023/12/22 02:44:35;;;;;;;15.23;2.15;;;;;;;-146.27;68.27;33025.50;5069798;28;20033;-70
2023/12/22 02:47:01;;;;;;;14.63;2.90;;;;;;;-146.27;68.21;33001.72;5064774;28;20067;-70
2023/12/22 02:49:26;;;;;;;13.32;2.70;;;;;;;-146.27;69.58;33033.44;5059636;28;20472;-71
2023/12/22 02:51:52;;;;;;;12.60;1.95;;;;;;;-146.27;69.79;33011.63;5056804;28;20025;-71
2023/12/22 02:54:17;;;;;;;11.48;3.13;;;;;;;-146.27;69.65;33043.38;5056227;28;20099;-71
2023/12/22 02:56:45;;;;;;;15.63;2.33;;;;;;;-146.27;69.56;33001.72;5057252;28;21911;-71
2023/12/22 02:59:11;;;;;;;18.65;2.08;;;;;;;-146.27;69.31;33049.31;5055773;28;20024;-70
2023/12/22 03:01:36;;;;;;;18.55;2.35;;;;;;;-146.27;68.34;33029.47;5056567;28;20028;-71
2023/12/22 03:04:01;;;;;;;21.77;2.47;;;;;;;-146.27;68.31;33037.41;5065072;28;20533;-71
2023/12/22 03:06:27;;;;;;;22.83;2.72;;;;;;;-146.27;67.37;33019.56;5066184;28;20039;-71
2023/12/22 03:08:52;;;;;;;11.93;2.30;;;;;;;-146.27;66.50;33007.66;5064057;28;20143;-71
2023/12/22 03:11:17;;;;;;;8.63;1.65;;;;;;;-146.27;66.08;32890.59;5063170;28;20123;-70
2023/12/22 03:13:43;;;;;;;19.90;2.75;;;;;;;-146.27;65.15;32934.25;5069482;28;20107;-72
2023/12/22 03:16:09;;;;;;;8.38;1.50;;;;;;;-146.27;64.04;33033.44;5066992;28;20115;-71
2023/12/22 03:18:34;;;;;;;23.33;2.88;;;;;;;-146.27;63.82;33041.38;5059580;28;20472;-71
2023/12/22 03:20:59;;;;;;;26.30;2.38;;;;;;;-146.27;63.19;33025.50;5068211;28;20036;-71
2023/12/22 03:23:25;;;;;;;20.10;2.38;;;;;;;-146.27;63.11;32946.16;5058566;28;20136;-71
2023/12/22 03:25:50;;;;;;;14.93;2.15;;;;;;;-146.27;62.48;33001.72;5056292;28;20031;-70
2023/12/22 03:28:15;;;;;;;16.73;2.83;;;;;;;-146.27;61.44;33041.38;5056432;28;20024;-71
2023/12/22 03:30:41;;;;;;;22.02;2.55;;;;;;;-146.27;61.33;33013.63;5057776;28;20387;-71
2023/12/22 03:33:06;;;;;;;16.20;2.53;;;;;;;-146.27;60.82;32971.94;5066496;28;20069;-72
2023/12/22 03:35:31;;;;;;;21.75;2.60;;;;;;;-146.27;61.93;33021.53;5062534;28;20021;-72
2023/12/22 03:37:57;;;;;;;10.90;1.90;;;;;;;-146.27;62.09;32979.88;5069408;28;20110;-71
2023/12/22 03:40:22;;;;;;;19.30;2.42;;;;;;;-146.27;62.30;32981.88;5075040;28;20468;-71
2023/12/22 03:42:48;;;;;;;12.60;2.15;;;;;;;-146.27;62.18;32971.94;5071209;28;20043;-71
2023/12/22 03:45:13;;;;;;;17.65;2.63;;;;;;;-146.27;62.82;32908.47;5067126;28;20032;-71
2023/12/22 03:47:38;;;;;;;12.07;1.90;;;;;;;-146.27;63.63;32930.28;5076746;28;20032;-72
2023/12/22 03:50:04;;;;;;;22.00;3.05;;;;;;;-146.27;63.69;32950.13;5066046;28;20116;-71
2023/12/22 03:52:29;;;;;;;13.98;2.08;;;;;;;-146.27;63.01;32969.97;5066921;28;20027;-71
2023/12/22 03:54:55;;;;;;;18.60;2.35;;;;;;;-146.27;62.18;32874.75;5069124;28;20064;-71
2023/12/22 03:57:20;;;;;;;12.57;1.85;;;;;;;-146.27;62.15;32910.44;5064903;28;20029;-71
2023/12/22 03:59:45;;;;;;;15.10;1.98;;;;;;;-146.27;62.93;32977.91;5069863;28;20059;-71
2023/12/22 04:02:11;;;;;;;11.95;1.95;;;;;;;-146.27;63.09;32906.47;5068778;28;20021;-72
2023/12/22 04:04:39;;;;;;;11.80;1.88;;;;;;;-146.27;64.26;32890.59;5065419;28;20048;-71
2023/12/22 04:07:04;;;;;;;18.65;2.63;;;;;;;-146.27;65.68;32874.75;5057672;28;20032;-71
2023/12/22 04:09:30;;;;;;;20.98;2.22;;;;;;;-146.27;66.82;32912.44;5059813;28;20099;-72
2023/12/22 04:11:55;;;;;;;16.50;2.22;;;;;;;-146.27;66.20;32934.25;5068967;28;20369;-69
2023/12/22 04:14:20;;;;;;;15.60;2.00;;;;;;;-146.27;65.87;32900.53;5071032;28;20031;-70
2023/12/22 04:16:46;;;;;;;16.65;1.80;;;;;;;-146.27;64.79;32914.41;5067536;28;20087;-71
2023/12/22 04:19:11;;;;;;;19.45;2.25;;;;;;;-146.27;65.21;32894.56;5066762;28;20024;-72
2023/12/22 04:21:36;;;;;;;16.73;2.13;;;;;;;-146.27;65.22;32866.81;5056684;28;20435;-71
2023/12/22 04:24:02;;;;;;;15.68;1.98;;;;;;;-146.27;65.81;32928.31;5055546;28;20583;-72
2023/12/22 04:26:27;;;;;;;12.38;2.45;;;;;;;-146.27;66.83;32934.25;5065322;28;20495;-71
2023/12/22 04:28:53;;;;;;;16.48;3.13;;;;;;;-146.27;68.03;32918.38;5069313;28;20033;-71
2023/12/22 04:31:18;;;;;;;17.65;2.65;;;;;;;-146.27;68.88;32882.66;5067405;28;20028;-71
2023/12/22 04:33:44;;;;;;;15.82;2.30;;;;;;;-146.27;69.85;32825.13;5066196;28;20029;-70
2023/12/22 04:36:09;;;;;;;19.35;2.63;;;;;;;-146.27;71.75;32874.75;5062350;28;20044;-70
2023/12/22 04:38:35;;;;;;;12.35;2.22;;;;;;;-146.27;73.02;32823.16;5067072;28;20017;-71
2023/12/22 04:41:00;;;;;;;15.65;2.53;;;;;;;-146.27;74.50;32890.59;5066230;28;20032;-70
2023/12/22 04:43:26;;;;;;;20.38;2.78;;;;;;;-146.27;76.20;32948.13;5066078;28;20384;-71
2023/12/22 04:45:51;;;;;;;19.50;2.17;;;;;;;-146.27;75.74;32795.38;5058556;28;20073;-71
2023/12/22 04:48:16;;;;;;;10.32;2.35;;;;;;;-146.27;76.36;32819.19;5069772;28;20052;-71
2023/12/22 04:50:42;;;;;;;18.13;2.95;;;;;;;-146.27;76.58;32819.19;5068878;28;20064;-71
2023/12/22 04:53:07;;;;;;;20.17;2.92;;;;;;;-146.27;75.99;32775.53;5066054;28;20427;-71
2023/12/22 04:55:32;;;;;;;23.58;3.28;;;;;;;-146.27;75.42;32783.47;5062649;28;20479;-71
2023/12/22 04:57:57;;;;;;;14.57;1.73;;;;;;;-146.27;75.35;32799.34;5068006;28;20446;-70
2023/12/22 05:00:24;;;;;;;13.13;2.17;;;;;;;-146.27;74.51;32827.13;5057062;28;20480;-71
2023/12/22 05:02:49;;;;;;;17.42;1.88;;;;;;;-146.27;74.48;32779.50;5056870;28;20411;-72
2023/12/22 05:05:14;;;;;;;14.35;2.85;;;;;;;-146.27;74.22;32846.97;5061901;28;20025;-72
2023/12/22 05:07:40;;;;;;;21.48;2.67;;;;;;;-146.27;74.14;32831.09;5063010;28;20048;-71
2023/12/22 05:10:06;;;;;;;18.83;2.35;;;;;;;-146.27;73.37;32723.97;5061097;28;20032;-71
2023/12/22 05:12:31;;;;;;;16.23;2.80;;;;;;;-146.27;73.61;32753.72;5069017;28;20584;-71
2023/12/22 05:14:57;;;;;;;15.70;1.92;;;;;;;-146.27;74.26;32795.38;5070129;28;20184;-71
2023/12/22 05:17:22;;;;;;;25.35;2.85;;;;;;;-146.27;73.67;32803.31;5064036;28;20063;-71
2023/12/22 05:19:47;;;;;;;16.60;2.60;;;;;;;-146.27;74.66;32813.25;5066117;28;20038;-71
2023/12/22 05:22:13;;;;;;;20.67;2.97;;;;;;;-146.27;75.18;32757.69;5062782;28;20029;-70
2023/12/22 05:24:38;;;;;;;18.27;3.10;;;;;;;-146.27;75.03;32817.19;5061405;28;20031;-71
2023/12/22 05:27:04;;;;;;;10.05;2.00;;;;;;;-146.27;74.33;32716.03;5058034;28;20020;-71
2023/12/22 05:29:29;;;;;;;23.17;2.85;;;;;;;-146.27;74.25;32751.75;5055432;28;20114;-70
2023/12/22 05:31:55;;;;;;;15.98;2.90;;;;;;;-146.27;74.44;32809.28;5060721;28;20488;-71
2023/12/22 05:34:20;;;;;;;19.95;2.88;;;;;;;-146.27;75.54;32858.88;5068668;28;20028;-71
2023/12/22 05:36:45;;;;;;;21.02;3.08;;;;;;;-146.27;75.72;32825.13;5068442;28;20032;-71
2023/12/22 05:39:11;;;;;;;29.02;4.22;;;;;;;-146.27;75.62;32837.03;5062691;28;20025;-72
2023/12/22 05:41:37;;;;;;;30.73;3.40;;;;;;;-146.27;76.17;32827.13;5061506;28;20399;-70
2023/12/22 05:44:06;;;;;;;21.27;3.17;;;;;;;-146.27;75.85;32769.59;5068396;28;20499;-71
2023/12/22 05:46:38;;;;;;;22.80;3.47;;;;;;;-146.27;76.63;32850.94;5062854;28;20096;-70
2023/12/22 05:49:04;;;;;;;27.90;3.33;;;;;;;-146.27;76.06;32795.38;5065309;28;20119;-70
2023/12/22 05:51:36;;;;;;;21.88;4.28;;;;;;;-146.27;76.77;32854.91;5068103;28;20112;-71
2023/12/22 05:54:01;;;;;;;28.25;3.95;;;;;;;-146.27;76.33;32815.22;5073825;28;20371;-70
2023/12/22 05:56:26;;;;;;;25.70;4.20;;;;;;;-146.27;76.77;32831.09;5061411;28;20032;-72
2023/12/22 05:58:52;;;;;;;23.63;4.25;;;;;;;-146.27;76.37;32793.41;5060986;28;20036;-71
2023/12/22 06:01:18;;;;;;;27.02;3.95;;;;;;;-146.27;76.47;32795.38;5068242;28;20086;-71
2023/12/22 06:03:48;;;;;;;21.10;3.22;;;;;;;-146.27;76.23;32757.69;5062061;28;20034;-70
2023/12/22 06:06:13;;;;;;;26.83;4.28;;;;;;;-146.27;75.93;32708.09;5068573;28;20040;-71
2023/12/22 06:08:39;;;;;;;23.17;3.85;;;;;;;-146.27;75.63;32712.06;5070213;28;20288;-71
2023/12/22 06:11:05;;;;;;;28.30;4.22;;;;;;;-146.27;74.94;32791.41;5067550;28;20504;-71
2023/12/22 06:13:31;;;;;;;30.60;4.20;;;;;;;-146.27;75.36;32737.84;5058658;28;20031;-71
2023/12/22 06:15:56;;;;;;;25.98;4.68;;;;;;;-146.27;75.85;32771.56;5064588;28;20040;-71
2023/12/22 06:18:22;;;;;;;41.42;4.22;;;;;;;-146.27;75.07;32727.94;5074695;28;20024;-71
2023/12/22 06:20:47;;;;;;;31.90;5.10;;;;;;;-146.27;75.29;32727.94;5066219;28;20024;-71
2023/12/22 06:23:12;;;;;;;35.70;5.07;;;;;;;-146.27;75.15;32720.00;5069453;28;20032;-71
2023/12/22 06:25:38;;;;;;;23.30;4.32;;;;;;;-146.27;75.10;32708.09;5067480;28;20021;-71
2023/12/22 06:28:03;;;;;;;37.03;4.80;;;;;;;-146.27;75.63;32727.94;5061773;28;20120;-70
2023/12/22 06:30:30;;;;;;;24.40;4.47;;;;;;;-146.27;75.68;32727.94;5072839;28;20043;-71
2023/12/22 06:32:55;;;;;;;38.47;5.18;;;;;;;-146.27;75.31;32716.03;5072657;28;20387;-70
2023/12/22 06:35:23;;;;;;;23.70;3.95;;;;;;;-146.27;75.74;32763.63;5074204;28;20017;-71
2023/12/22 06:37:49;;;;;;;21.08;3.92;;;;;;;-146.27;75.37;32700.16;5055326;28;20032;-71
2023/12/22 06:40:15;;;;;;;32.60;4.88;;;;;;;-146.27;75.30;32747.78;5050708;28;20086;-71
2023/12/22 06:42:40;;;;;;;26.80;4.13;;;;;;;-146.27;75.54;32716.03;5066648;28;20514;-71
2023/12/22 06:45:06;;;;;;;30.35;4.88;;;;;;;-146.27;76.69;32767.59;5064132;28;20033;-71
2023/12/22 06:47:31;;;;;;;34.40;4.63;;;;;;;-146.27;75.82;32720.00;5052352;28;20062;-71
2023/12/22 06:49:56;;;;;;;36.28;4.82;;;;;;;-146.27;75.78;32684.28;5072297;28;20348;-71
2023/12/22 06:52:22;;;;;;;28.08;4.78;;;;;;;-146.27;76.10;32702.13;5068202;28;20028;-71
2023/12/22 06:54:47;;;;;;;25.27;4.05;;;;;;;-146.27;75.92;32644.63;5064084;28;20044;-71
2023/12/22 06:57:12;;;;;;;26.15;4.60;;;;;;;-146.27;75.73;32652.53;5072401;28;20111;-71
2023/12/22 06:59:38;;;;;;;28.80;4.72;;;;;;;-146.27;75.32;32593.03;5064561;28;20055;-70
2023/12/22 07:02:04;;;;;;;24.48;4.18;;;;;;;-146.27;76.25;32710.06;5063061;28;20077;-70
2023/12/22 07:04:29;;;;;;;32.53;3.88;;;;;;;-146.27;76.30;32696.19;5054789;28;20460;-71
2023/12/22 07:06:54;;;;;;;30.02;4.25;;;;;;;-146.27;76.31;32676.34;5063656;28;20551;-71
2023/12/22 07:09:20;;;;;;;27.95;4.28;;;;;;;-146.27;76.52;32721.97;5066977;28;20115;-71
2023/12/22 07:11:50;;;;;;;17.02;3.05;;;;;;;-146.27;76.66;32694.22;5070264;28;20024;-72
2023/12/22 07:14:16;;;;;;;29.83;4.15;;;;;;;-146.27;76.19;32636.69;5071204;28;20494;-71
2023/12/22 07:16:44;;;;;;;28.40;4.07;;;;;;;-146.27;76.69;32648.56;5067853;28;20032;-71
2023/12/22 07:19:13;;;;;;;24.88;4.18;;;;;;;-146.27;76.85;32690.25;5066210;28;20032;-70
2023/12/22 07:21:39;;;;;;;14.68;2.80;;;;;;;-146.27;77.98;32793.41;5060236;28;20483;-70
2023/12/22 07:24:05;;;;;;;24.80;3.55;;;;;;;-146.27;77.29;32672.38;5066977;28;20032;-71
2023/12/22 07:26:30;;;;;;;26.15;4.00;;;;;;;-146.27;77.96;32690.25;5065852;28;20024;-71
2023/12/22 07:28:56;;;;;;;25.67;5.43;;;;;;;-146.27;77.85;32634.69;5061202;28;20124;-71
2023/12/22 07:31:22;;;;;;;27.35;4.78;;;;;;;-146.27;79.47;32767.59;5068818;28;20399;-71
2023/12/22 07:33:47;;;;;;;28.48;4.28;;;;;;;-146.27;79.55;32684.28;5068262;28;20024;-71
2023/12/22 07:36:13;;;;;;;27.80;3.38;;;;;;;-146.27;80.31;32714.03;5064110;28;20469;-71
2023/12/22 07:38:41;;;;;;;19.42;3.70;;;;;;;-146.27;81.07;32704.13;5069555;28;20561;-72
2023/12/22 07:41:07;;;;;;;18.60;3.15;;;;;;;-146.27;81.74;32775.53;5067598;28;20090;-71
2023/12/22 07:43:33;;;;;;;25.35;3.47;;;;;;;-146.27;81.51;32698.19;5072692;28;20044;-70
2023/12/22 07:45:58;;;;;;;14.90;3.55;;;;;;;-146.27;83.90;32815.22;5072520;28;20035;-71
2023/12/22 07:48:26;;;;;;;19.10;3.53;;;;;;;-146.27;84.61;32767.59;5072728;28;20040;-71
2023/12/22 07:50:52;;;;;;;11.77;2.97;;;;;;;-146.27;86.48;32839.03;5072362;28;20024;-71
2023/12/22 07:53:17;;;;;;;18.23;2.10;;;;;;;-146.27;86.89;32831.09;5072516;28;20492;-72
2023/12/22 07:55:46;;;;;;;17.38;2.67;;;;;;;-146.27;87.50;32846.97;5070921;28;20017;-72
2023/12/22 07:58:12;;;;;;;14.88;2.95;;;;;;;-146.27;87.46;32751.75;5066442;28;20032;-71
2023/12/22 08:00:37;;;;;;;22.33;3.40;;;;;;;-146.27;87.44;32866.81;5071202;28;20043;-71
2023/12/22 08:03:03;;;;;;;15.95;2.92;;;;;;;-146.27;87.76;32829.09;5088531;28;20035;-71
2023/12/22 08:05:29;;;;;;;18.38;2.67;;;;;;;-146.27;88.08;32930.28;5091816;28;20046;-70
2023/12/22 08:07:55;;;;;;;21.90;3.28;;;;;;;-146.27;87.10;32753.72;5091250;28;20115;-78
2023/12/22 08:10:21;;;;;;;27.70;2.85;;;;;;;-146.27;87.05;32846.97;5084963;28;20026;-70
2023/12/22 08:12:46;;;;;;;15.05;2.25;;;;;;;-146.27;87.49;32839.03;5082547;28;20024;-71
2023/12/22 08:15:12;;;;;;;20.42;3.15;;;;;;;-146.27;87.97;32789.44;5092490;28;20024;-71
2023/12/22 08:17:37;;;;;;;16.60;2.20;;;;;;;-146.27;87.67;32799.34;5078289;28;20028;-71
2023/12/22 08:20:04;;;;;;;18.17;2.50;;;;;;;-146.27;86.86;32716.03;5072812;28;20543;-72
2023/12/22 08:22:29;;;;;;;10.30;1.58;;;;;;;-146.27;87.54;32844.97;5091798;28;20028;-71
2023/12/22 08:24:55;;;;;;;9.93;2.00;;;;;;;-146.27;86.62;32712.06;5089331;28;20077;-72
2023/12/22 08:27:20;;;;;;;16.92;3.25;;;;;;;-146.27;86.57;32674.38;5078905;28;20080;-71
2023/12/22 08:29:45;;;;;;;14.18;1.88;;;;;;;-146.27;86.08;32608.91;5065594;28;20058;-70
2023/12/22 08:32:11;;;;;;;16.80;2.85;;;;;;;-146.27;87.72;32708.09;5070489;28;20489;-70
2023/12/22 08:34:36;;;;;;;14.27;2.33;;;;;;;-146.27;87.89;32743.81;5071534;28;20016;-71
2023/12/22 08:37:02;;;;;;;9.23;1.85;;;;;;;-146.27;88.21;32723.97;5088228;28;20038;-70
2023/12/22 08:39:27;;;;;;;11.93;1.50;;;;;;;-146.27;88.28;32672.38;5091315;28;20125;-71
2023/12/22 08:41:53;;;;;;;11.95;1.65;;;;;;;-146.27;87.93;32680.31;5077129;28;20025;-70
2023/12/22 08:44:19;;;;;;;14.40;2.28;;;;;;;-146.27;87.74;32662.47;5071361;28;20116;-71
2023/12/22 08:46:44;;;;;;;17.15;2.22;;;;;;;-146.27;88.16;32680.31;5071966;28;20096;-71
2023/12/22 08:49:09;;;;;;;17.77;2.80;;;;;;;-146.27;87.77;32640.66;5068791;28;20017;-69
2023/12/22 08:51:35;;;;;;;13.90;1.75;;;;;;;-146.27;87.82;32648.56;5072122;28;20024;-71
2023/12/22 08:54:00;;;;;;;17.40;1.95;;;;;;;-146.27;86.79;32620.81;5071359;28;20064;-70
2023/12/22 08:56:26;;;;;;;12.00;2.47;;;;;;;-146.27;86.28;32579.16;5057039;28;20029;-70
2023/12/22 08:58:54;;;;;;;10.63;1.67;;;;;;;-146.27;86.80;32581.13;5062332;28;20063;-71
2023/12/22 09:01:20;;;;;;;12.20;1.60;;;;;;;-146.27;86.01;32598.97;5071888;28;20028;-69
2023/12/22 09:03:46;;;;;;;10.68;2.20;;;;;;;-146.27;86.35;32600.97;5072257;28;20059;-70
2023/12/22 09:06:20;;;;;;;13.75;1.67;;;;;;;-146.27;85.85;32598.97;5072262;28;20033;-71
2023/12/22 09:08:45;;;;;;;;;;;;;;;-146.27;85.22;32537.50;5071225;28;20035;-70
2023/12/22 09:11:12;;;;;;;8.75;1.23;;;;;;;-146.27;85.14;32591.06;5079282;28;19912;-70
2023/12/22 09:13:37;;;;;;;8.45;1.35;;;;;;;-146.27;85.35;32553.34;5068291;28;20027;-71
2023/12/22 09:16:03;;;;;;;9.30;1.83;;;;;;;-146.27;84.25;32479.97;5059339;28;20455;-70
2023/12/22 09:18:28;;;;;;;13.10;2.22;;;;;;;-146.27;84.61;32505.75;5068942;28;20034;-72
2023/12/22 09:20:54;;;;;;;10.88;1.55;;;;;;;-146.27;84.64;32553.34;5075391;28;20028;-70
2023/12/22 09:23:21;;;;;;;12.65;1.77;;;;;;;-146.27;84.34;32525.59;5070694;28;20055;-70
2023/12/22 09:25:48;;;;;;;9.43;1.55;;;;;;;-146.27;84.35;32474.00;5063938;28;20476;-69
2023/12/22 09:28:13;;;;;;;9.90;1.48;;;;;;;-146.27;84.23;32485.91;5052872;28;20060;-71
2023/12/22 09:30:39;;;;;;;11.07;1.48;;;;;;;-146.27;84.30;32505.75;5063106;28;20448;-71
2023/12/22 09:33:04;;;;;;;13.48;1.55;;;;;;;-146.27;85.25;32565.25;5072056;28;20365;-71
2023/12/22 09:35:29;;;;;;;13.00;1.75;;;;;;;-146.27;84.69;32495.84;5062961;28;20502;-70
2023/12/22 09:37:55;;;;;;;10.02;1.48;;;;;;;-146.27;84.20;32446.25;5069717;28;20438;-70
2023/12/22 09:40:21;;;;;;;10.90;1.60;;;;;;;-146.27;84.42;32450.22;5074353;28;20058;-71
2023/12/22 09:42:47;;;;;;;9.45;1.40;;;;;;;-146.27;85.28;32547.41;5090259;28;20530;-71
2023/12/22 09:45:16;;;;;;;10.18;1.50;;;;;;;-146.27;84.57;32450.22;5068898;28;20116;-71
2023/12/22 09:47:44;;;;;;;6.05;1.25;;;;;;;-146.27;84.61;32430.38;5069671;28;20516;-71
2023/12/22 09:50:09;;;;;;;9.73;2.10;;;;;;;-146.27;84.61;32442.28;5070892;28;20059;-71
2023/12/22 09:52:36;;;;;;;7.18;1.30;;;;;;;-146.27;84.58;32432.34;5070939;28;20067;-72
2023/12/22 09:55:03;;;;;;;9.18;1.63;;;;;;;-146.27;85.30;32481.94;5070073;28;20044;-72
2023/12/22 09:57:30;;;;;;;12.18;1.75;;;;;;;-146.27;85.09;32438.31;5059633;28;20033;-72
2023/12/22 09:59:57;;;;;;;6.07;1.13;;;;;;;-146.27;84.29;32426.41;5049997;28;20025;-71
2023/12/22 10:02:25;;;;;;;12.65;1.63;;;;;;;-146.27;84.75;32493.84;5051783;28;20033;-71
2023/12/22 10:04:50;;;;;;;9.85;2.30;;;;;;;-146.27;84.87;32481.94;5071941;28;20077;-71
2023/12/22 10:07:17;;;;;;;8.73;1.73;;;;;;;-146.27;84.30;32485.91;5077431;28;20036;-70
2023/12/22 10:09:43;;;;;;;8.50;2.22;;;;;;;-146.27;83.85;32458.13;5069254;28;20491;-70
2023/12/22 10:12:11;;;;;;;12.75;1.73;;;;;;;-146.27;84.15;32477.97;5071337;28;20028;-70
2023/12/22 10:14:38;;;;;;;11.65;1.58;;;;;;;-146.27;83.96;32446.25;5078868;28;20039;-70
2023/12/22 10:17:04;;;;;;;17.55;1.80;;;;;;;-146.27;83.05;32366.91;5067158;28;20028;-70
2023/12/22 10:19:30;;;;;;;8.38;1.17;;;;;;;-146.27;82.66;32358.97;5068745;28;20024;-69
2023/12/22 10:21:55;;;;;;;8.20;1.65;;;;;;;-146.27;83.14;32430.38;5070117;28;20453;-70
2023/12/22 10:24:43;;;;;;;7.95;1.95;;;;;;;-146.27;83.56;32466.06;5065213;28;20059;-71
2023/12/22 10:27:10;;;;;;;10.18;1.90;;;;;;;-146.27;83.16;32402.59;5078180;28;20024;-71
2023/12/22 10:29:36;;;;;;;14.55;1.45;;;;;;;-146.27;82.77;32456.16;5085482;28;20065;-70
2023/12/22 10:32:03;;;;;;;5.90;1.60;;;;;;;-146.27;81.87;32402.59;5075665;28;20032;-70
2023/12/22 10:34:29;;;;;;;11.57;2.63;;;;;;;-146.27;82.07;32400.63;5070000;28;20492;-69
2023/12/22 10:36:54;;;;;;;9.35;2.25;;;;;;;-146.27;82.17;32462.09;5070282;28;20109;-71
2023/12/22 10:39:21;;;;;;;8.73;1.40;;;;;;;-146.27;82.06;32353.00;5059732;28;20020;-70
2023/12/22 10:41:46;;;;;;;6.63;1.77;;;;;;;-146.27;82.52;32446.25;5066252;28;20032;-70
2023/12/22 10:44:12;;;;;;;12.70;1.35;;;;;;;-146.27;83.11;32446.25;5068192;28;20021;-70
2023/12/22 10:46:37;;;;;;;9.50;1.40;;;;;;;-146.27;82.58;32380.78;5068359;28;20110;-70
2023/12/22 10:49:04;;;;;;;7.60;1.27;;;;;;;-146.27;82.88;32434.34;5069274;28;20035;-71
2023/12/22 10:51:32;;;;;;;9.48;1.33;;;;;;;-146.27;82.28;32353.00;5065163;28;20033;-69
2023/12/22 10:53:58;;;;;;;9.38;2.22;;;;;;;-146.27;82.79;32414.50;5061159;28;20037;-70
2023/12/22 10:56:24;;;;;;;9.52;1.60;;;;;;;-146.27;81.90;32307.38;5068547;28;20037;-70
2023/12/22 10:58:52;;;;;;;10.15;1.95;;;;;;;-146.27;81.80;32349.03;5064024;28;20111;-69
2023/12/22 11:01:17;;;;;;;6.40;0.98;;;;;;;-146.27;82.41;32446.25;5065504;28;20040;-71
2023/12/22 11:03:46;;;;;;;11.88;1.48;;;;;;;-146.27;82.06;32291.50;5066212;28;20025;-70